createdAt,value
2017-10-04T00:00:41.312Z,5.33
2017-10-04T00:03:09.282Z,4.47
2017-10-04T00:05:37.040Z,3.67
2017-10-04T00:08:05.318Z,3.73
2017-10-04T00:10:33.184Z,4.70
2017-10-04T00:13:01.252Z,4.20
2017-10-04T00:15:29.104Z,3.50
2017-10-04T00:17:56.876Z,3.77
2017-10-04T00:20:24.637Z,4.13
2017-10-04T00:22:52.415Z,3.33
2017-10-04T00:25:21.489Z,5.27
2017-10-04T00:27:49.272Z,3.90
2017-10-04T00:30:17.121Z,5.30
2017-10-04T00:32:45.092Z,6.70
2017-10-04T00:35:13.180Z,3.93
2017-10-04T00:37:40.963Z,3.30
2017-10-04T00:40:08.724Z,4.97
2017-10-04T00:42:36.575Z,5.70
2017-10-04T00:45:05.108Z,5.50
2017-10-04T00:47:32.919Z,3.03
2017-10-04T00:50:00.798Z,10.13
2017-10-04T00:52:28.740Z,6.33
2017-10-04T00:54:56.724Z,3.97
2017-10-04T00:57:25.110Z,3.10
2017-10-04T00:59:52.929Z,7.20
2017-10-04T01:02:20.796Z,2.97
2017-10-04T01:04:48.890Z,5.80
2017-10-04T01:07:16.761Z,2.57
2017-10-04T01:09:44.700Z,3.37
2017-10-04T01:12:13.232Z,4.90
2017-10-04T01:14:41.176Z,5.50
2017-10-04T01:17:09.260Z,4.77
2017-10-04T01:19:37.215Z,4.60
2017-10-04T01:22:05.099Z,3.00
2017-10-04T01:24:33.050Z,4.10
2017-10-04T01:27:00.846Z,2.87
2017-10-04T01:29:28.710Z,2.40
2017-10-04T01:31:57.062Z,8.53
2017-10-04T01:34:24.944Z,3.00
2017-10-04T01:36:52.722Z,3.00
2017-10-04T01:39:21.388Z,3.83
2017-10-04T01:41:49.463Z,2.40
2017-10-04T01:44:17.430Z,2.73
2017-10-04T01:46:45.300Z,3.40
2017-10-04T01:49:13.275Z,2.87
2017-10-04T01:51:41.426Z,3.77
2017-10-04T01:54:09.204Z,2.87
2017-10-04T01:56:37.054Z,3.20
2017-10-04T01:59:05.348Z,4.27
2017-10-04T02:01:33.197Z,3.77
2017-10-04T02:04:01.941Z,6.90
2017-10-04T02:06:30.581Z,4.23
2017-10-04T02:08:58.847Z,5.20
2017-10-04T02:11:27.127Z,3.03
2017-10-04T02:13:55.086Z,3.60
2017-10-04T02:16:22.868Z,6.93
2017-10-04T02:18:51.457Z,6.47
2017-10-04T02:21:19.213Z,4.40
2017-10-04T02:23:47.090Z,3.43
2017-10-04T02:26:14.947Z,3.73
2017-10-04T02:28:43.925Z,6.90
2017-10-04T02:31:12.310Z,4.60
2017-10-04T02:33:40.174Z,5.33
2017-10-04T02:36:08.115Z,4.83
2017-10-04T02:38:35.906Z,7.00
2017-10-04T02:41:03.766Z,5.80
2017-10-04T02:43:31.756Z,6.53
2017-10-04T02:45:59.729Z,10.03
2017-10-04T02:48:27.598Z,5.33
2017-10-04T02:50:55.460Z,4.83
2017-10-04T02:53:23.409Z,3.17
2017-10-04T02:55:51.294Z,7.00
2017-10-04T02:58:19.153Z,6.33
2017-10-04T03:00:47.109Z,5.53
2017-10-04T03:03:14.888Z,4.10
2017-10-04T03:05:43.697Z,4.53
2017-10-04T03:08:11.846Z,5.53
2017-10-04T03:10:39.922Z,5.43
2017-10-04T03:13:08.594Z,6.50
2017-10-04T03:15:37.095Z,7.33
2017-10-04T03:18:05.047Z,5.40
2017-10-04T03:20:32.914Z,6.27
2017-10-04T03:23:01.513Z,6.17
2017-10-04T03:25:29.459Z,7.30
2017-10-04T03:27:57.424Z,5.63
2017-10-04T03:30:25.315Z,8.67
2017-10-04T03:32:53.161Z,7.90
2017-10-04T03:35:21.948Z,7.77
2017-10-04T03:37:49.691Z,10.00
2017-10-04T03:40:17.785Z,9.60
2017-10-04T03:42:45.857Z,11.20
2017-10-04T03:45:14.276Z,13.40
2017-10-04T03:47:42.944Z,6.40
2017-10-04T03:50:11.105Z,7.03
2017-10-04T03:52:39.896Z,7.27
2017-10-04T03:55:07.648Z,14.63
2017-10-04T03:57:35.418Z,5.73
2017-10-04T04:00:03.374Z,5.73
2017-10-04T04:02:31.202Z,9.20
2017-10-04T04:04:59.838Z,6.47
2017-10-04T04:07:27.792Z,5.10
2017-10-04T04:09:55.763Z,8.30
2017-10-04T04:12:23.755Z,7.07
2017-10-04T04:14:51.800Z,5.93
2017-10-04T04:17:19.773Z,7.37
2017-10-04T04:19:47.759Z,6.13
2017-10-04T04:22:15.711Z,8.83
2017-10-04T04:24:43.590Z,12.73
2017-10-04T04:27:11.855Z,6.43
2017-10-04T04:29:40.129Z,7.03
2017-10-04T04:32:07.876Z,5.03
2017-10-04T04:34:35.616Z,5.30
2017-10-04T04:37:04.338Z,5.37
2017-10-04T04:39:32.920Z,3.70
2017-10-04T04:42:00.824Z,7.10
2017-10-04T04:44:29.580Z,14.60
2017-10-04T04:46:57.546Z,7.53
2017-10-04T04:49:25.734Z,6.47
2017-10-04T04:51:53.517Z,6.43
2017-10-04T04:54:21.362Z,5.50
2017-10-04T04:56:50.213Z,8.17
2017-10-04T04:59:18.033Z,6.57
2017-10-04T05:01:45.763Z,7.33
2017-10-04T05:04:13.735Z,4.43
2017-10-04T05:06:42.130Z,9.23
2017-10-04T05:09:10.007Z,12.37
2017-10-04T05:11:37.963Z,7.70
2017-10-04T05:14:06.433Z,10.80
2017-10-04T05:16:34.505Z,3.87
2017-10-04T05:19:03.922Z,4.40
2017-10-04T05:21:31.788Z,4.30
2017-10-04T05:23:59.640Z,7.70
2017-10-04T05:26:27.450Z,9.00
2017-10-04T05:28:56.203Z,5.87
2017-10-04T05:31:24.158Z,6.23
2017-10-04T05:33:52.251Z,7.00
2017-10-04T05:36:20.016Z,6.63
2017-10-04T05:38:47.879Z,12.07
2017-10-04T05:41:15.704Z,12.93
2017-10-04T05:43:43.515Z,7.90
2017-10-04T05:46:11.663Z,7.40
2017-10-04T05:48:39.448Z,9.80
2017-10-04T05:51:07.413Z,14.37
2017-10-04T05:53:35.284Z,6.07
2017-10-04T05:56:03.084Z,5.47
2017-10-04T05:58:31.839Z,6.13
2017-10-04T06:00:59.784Z,5.60
2017-10-04T06:03:27.750Z,6.90
2017-10-04T06:05:55.621Z,4.40
2017-10-04T06:08:23.385Z,7.40
2017-10-04T06:10:51.134Z,8.70
2017-10-04T06:13:18.918Z,7.27
2017-10-04T06:15:46.684Z,5.10
2017-10-04T06:18:14.662Z,4.00
2017-10-04T06:20:45.118Z,6.77
2017-10-04T06:23:16.329Z,6.70
2017-10-04T06:25:44.201Z,5.90
2017-10-04T06:28:13.587Z,5.70
2017-10-04T06:30:41.666Z,4.23
2017-10-04T06:33:09.619Z,2.63
2017-10-04T06:35:38.418Z,2.17
2017-10-04T06:38:06.383Z,7.87
2017-10-04T06:40:34.351Z,2.20
2017-10-04T06:43:02.423Z,2.47
2017-10-04T06:45:30.492Z,3.13
2017-10-04T06:47:58.495Z,5.77
2017-10-04T06:50:26.430Z,6.10
2017-10-04T06:52:54.404Z,8.37
2017-10-04T06:55:22.880Z,3.80
2017-10-04T06:57:50.770Z,8.07
2017-10-04T07:00:18.726Z,3.23
2017-10-04T07:02:46.604Z,3.33
2017-10-04T07:05:15.377Z,4.27
2017-10-04T07:07:43.339Z,3.20
2017-10-04T07:10:11.619Z,6.00
2017-10-04T07:12:39.689Z,1.67
2017-10-04T07:15:07.664Z,2.47
2017-10-04T07:17:35.548Z,2.53
2017-10-04T07:20:03.494Z,2.40
2017-10-04T07:22:31.461Z,5.53
2017-10-04T07:24:59.430Z,2.63
2017-10-04T07:27:27.810Z,2.50
2017-10-04T07:29:55.715Z,11.50
2017-10-04T07:32:24.387Z,3.00
2017-10-04T07:34:52.536Z,4.30
2017-10-04T07:37:20.706Z,4.80
2017-10-04T07:39:48.677Z,3.57
2017-10-04T07:42:16.645Z,6.33
2017-10-04T07:44:45.535Z,5.30
2017-10-04T07:47:13.502Z,5.70
2017-10-04T07:49:42.026Z,3.17
2017-10-04T07:52:10.877Z,8.97
2017-10-04T07:54:38.769Z,4.57
2017-10-04T07:57:06.817Z,5.43
2017-10-04T07:59:34.681Z,3.43
2017-10-04T08:02:02.884Z,2.73
2017-10-04T08:04:32.285Z,3.03
2017-10-04T08:07:00.230Z,2.13
2017-10-04T08:09:28.434Z,3.20
2017-10-04T08:11:56.367Z,8.50
2017-10-04T08:14:24.336Z,4.27
2017-10-04T08:16:52.569Z,7.13
2017-10-04T08:19:21.298Z,6.07
2017-10-04T08:21:49.267Z,2.83
2017-10-04T08:24:17.234Z,2.50
2017-10-04T08:26:45.210Z,4.97
2017-10-04T08:29:13.173Z,2.53
2017-10-04T08:31:41.142Z,9.43
2017-10-04T08:34:09.110Z,5.57
2017-10-04T08:36:37.079Z,7.53
2017-10-04T08:39:05.356Z,8.60
2017-10-04T08:41:33.325Z,3.10
2017-10-04T08:44:01.423Z,5.53
2017-10-04T08:46:29.469Z,4.07
2017-10-04T08:48:57.540Z,8.70
2017-10-04T08:51:25.509Z,6.83
2017-10-04T08:53:53.580Z,5.07
2017-10-04T08:56:21.549Z,9.73
2017-10-04T08:58:49.536Z,8.67
2017-10-04T09:01:17.591Z,6.80
2017-10-04T09:03:45.661Z,5.73
2017-10-04T09:06:13.734Z,12.40
2017-10-04T09:08:41.638Z,15.00
2017-10-04T09:11:10.808Z,10.83
2017-10-04T09:13:38.905Z,9.60
2017-10-04T09:16:07.678Z,5.80
2017-10-04T09:18:35.638Z,5.57
2017-10-04T09:21:03.594Z,5.33
2017-10-04T09:23:31.669Z,6.60
2017-10-04T09:25:59.688Z,7.40
2017-10-04T09:28:28.421Z,8.70
2017-10-04T09:30:57.517Z,7.33
2017-10-04T09:33:25.486Z,8.83
2017-10-04T09:35:53.557Z,8.23
2017-10-04T09:38:21.526Z,7.97
2017-10-04T09:40:51.441Z,11.77
2017-10-04T09:43:19.924Z,11.53
2017-10-04T09:45:47.838Z,6.97
2017-10-04T09:48:16.393Z,7.67
2017-10-04T09:50:44.261Z,5.70
2017-10-04T09:53:12.310Z,8.50
2017-10-04T09:55:40.820Z,8.63
2017-10-04T09:58:10.377Z,6.63
2017-10-04T10:00:39.781Z,9.37
2017-10-04T10:03:08.219Z,12.57
2017-10-04T10:05:36.845Z,6.10
2017-10-04T10:08:05.239Z,9.63
2017-10-04T10:10:33.317Z,6.67
2017-10-04T10:13:01.207Z,11.50
2017-10-04T10:15:29.094Z,11.50
2017-10-04T10:17:58.141Z,7.90
2017-10-04T10:20:26.149Z,5.40
2017-10-04T10:22:54.902Z,5.47
2017-10-04T10:25:23.013Z,6.70
2017-10-04T10:27:51.766Z,12.63
2017-10-04T10:30:20.756Z,32.63
2017-10-04T10:32:48.721Z,15.00
2017-10-04T10:35:16.690Z,6.07
2017-10-04T10:37:44.663Z,14.00
2017-10-04T10:40:12.622Z,10.00
2017-10-04T10:42:40.611Z,12.57
2017-10-04T10:45:08.566Z,8.17
2017-10-04T10:47:36.456Z,8.83
2017-10-04T10:50:04.607Z,5.60
2017-10-04T10:52:32.576Z,13.77
2017-10-04T10:55:01.467Z,13.27
2017-10-04T10:57:29.434Z,15.93
2017-10-04T10:59:57.428Z,11.33
2017-10-04T11:02:26.124Z,6.50
2017-10-04T11:04:55.022Z,10.47
2017-10-04T11:07:23.804Z,10.00
2017-10-04T11:09:52.494Z,12.93
2017-10-04T11:12:21.379Z,8.37
2017-10-04T11:14:49.619Z,7.60
2017-10-04T11:17:17.541Z,9.63
2017-10-04T11:19:46.377Z,6.63
2017-10-04T11:22:14.383Z,5.17
2017-10-04T11:24:44.195Z,9.63
2017-10-04T11:27:13.772Z,9.93
2017-10-04T11:29:41.763Z,6.57
2017-10-04T11:32:10.522Z,5.87
2017-10-04T11:34:38.393Z,7.73
2017-10-04T11:37:06.461Z,8.43
2017-10-04T11:39:34.539Z,5.67
2017-10-04T11:42:02.603Z,4.23
2017-10-04T11:44:30.571Z,6.53
2017-10-04T11:46:58.539Z,4.67
2017-10-04T11:49:27.221Z,14.10
2017-10-04T11:51:55.121Z,5.23
2017-10-04T11:54:23.367Z,5.07
2017-10-04T11:56:51.346Z,5.00
2017-10-04T11:59:20.176Z,7.33
2017-10-04T12:01:49.119Z,8.73
2017-10-04T12:04:17.088Z,4.63
2017-10-04T12:06:45.071Z,4.80
2017-10-04T12:09:13.129Z,8.40
2017-10-04T12:11:41.095Z,6.80
2017-10-04T12:14:09.107Z,6.80
2017-10-04T12:16:37.801Z,6.80
2017-10-04T12:19:06.543Z,3.40
2017-10-04T12:21:35.694Z,7.30
2017-10-04T12:24:03.810Z,5.00
2017-10-04T12:26:31.780Z,4.07
2017-10-04T12:29:00.912Z,9.23
2017-10-04T12:31:29.976Z,4.00
2017-10-04T12:33:57.950Z,5.73
2017-10-04T12:36:26.110Z,10.07
2017-10-04T12:38:55.107Z,5.60
2017-10-04T12:41:23.278Z,10.17
2017-10-04T12:43:51.359Z,6.20
2017-10-04T12:46:19.368Z,6.87
2017-10-04T12:48:48.252Z,7.13
2017-10-04T12:51:18.183Z,6.80
2017-10-04T12:53:46.398Z,8.07
2017-10-04T12:56:14.572Z,7.00
2017-10-04T12:58:44.125Z,8.07
2017-10-04T13:01:12.906Z,6.90
2017-10-04T13:03:43.176Z,6.90
2017-10-04T13:06:11.313Z,5.57
2017-10-04T13:08:39.974Z,5.50
2017-10-04T13:11:07.913Z,5.20
2017-10-04T13:13:35.885Z,8.43
2017-10-04T13:16:04.890Z,10.47
2017-10-04T13:18:34.506Z,8.10
2017-10-04T13:21:02.981Z,7.63
2017-10-04T13:23:31.041Z,8.30
2017-10-04T13:25:59.862Z,7.97
2017-10-04T13:28:28.650Z,12.67
2017-10-04T13:30:57.604Z,11.37
2017-10-04T13:33:25.676Z,8.10
2017-10-04T13:35:53.645Z,12.00
2017-10-04T13:38:21.565Z,13.20
2017-10-04T13:40:49.522Z,14.00
2017-10-04T13:43:18.370Z,16.33
2017-10-04T13:45:46.442Z,12.60
2017-10-04T13:48:14.662Z,14.33
2017-10-04T13:50:43.324Z,13.80
2017-10-04T13:53:11.380Z,13.70
2017-10-04T13:55:39.450Z,14.20
2017-10-04T13:58:09.094Z,13.40
2017-10-04T14:00:38.150Z,14.00
2017-10-04T14:03:06.155Z,15.40
2017-10-04T14:05:35.006Z,15.60
2017-10-04T14:08:03.489Z,13.10
2017-10-04T14:10:31.865Z,10.10
2017-10-04T14:12:59.937Z,15.53
2017-10-04T14:15:27.904Z,9.77
2017-10-04T14:17:55.979Z,12.47
2017-10-04T14:20:23.944Z,11.33
2017-10-04T14:22:51.846Z,12.50
2017-10-04T14:25:20.702Z,7.97
2017-10-04T14:27:48.710Z,24.50
2017-10-04T14:30:18.216Z,13.13
2017-10-04T14:32:47.895Z,11.63
2017-10-04T14:35:15.854Z,20.70
2017-10-04T14:37:43.829Z,10.10
2017-10-04T14:40:11.828Z,12.80
2017-10-04T14:42:40.579Z,13.77
2017-10-04T14:45:08.554Z,9.30
2017-10-04T14:47:36.549Z,11.40
2017-10-04T14:50:05.618Z,16.90
2017-10-04T14:52:34.099Z,10.70
2017-10-04T14:55:01.985Z,10.03
2017-10-04T14:57:30.853Z,10.07
2017-10-04T14:59:58.925Z,11.67
2017-10-04T15:02:28.119Z,8.93
2017-10-04T15:04:56.093Z,18.73
2017-10-04T15:07:24.186Z,9.27
2017-10-04T15:09:52.185Z,10.60
2017-10-04T15:12:20.300Z,12.03
2017-10-04T15:14:48.727Z,12.93
2017-10-04T15:17:17.405Z,9.63
2017-10-04T15:19:46.188Z,11.07
2017-10-04T15:22:14.941Z,7.57
2017-10-04T15:24:43.118Z,12.50
2017-10-04T15:27:11.256Z,11.83
2017-10-04T15:29:39.361Z,11.37
2017-10-04T15:32:07.535Z,17.20
2017-10-04T15:34:35.646Z,15.33
2017-10-04T15:37:04.293Z,13.47
2017-10-04T15:39:32.180Z,10.77
2017-10-04T15:42:00.145Z,15.33
2017-10-04T15:44:28.711Z,14.37
2017-10-04T15:46:56.582Z,10.60
2017-10-04T15:49:24.491Z,17.73
2017-10-04T15:51:53.121Z,15.33
2017-10-04T15:54:21.009Z,13.40
2017-10-04T15:56:48.961Z,14.50
2017-10-04T15:59:17.033Z,14.73
2017-10-04T16:01:45.034Z,12.10
2017-10-04T16:04:13.073Z,11.40
2017-10-04T16:06:41.249Z,10.10
2017-10-04T16:09:09.217Z,10.80
2017-10-04T16:11:37.192Z,10.70
2017-10-04T16:14:06.077Z,12.83
2017-10-04T16:16:34.095Z,15.00
2017-10-04T16:19:02.220Z,12.10
2017-10-04T16:21:30.217Z,15.73
2017-10-04T16:23:58.710Z,15.10
2017-10-04T16:26:27.463Z,10.30
2017-10-04T16:28:55.527Z,14.20
2017-10-04T16:31:23.601Z,11.53
2017-10-04T16:33:51.567Z,13.20
2017-10-04T16:36:19.741Z,14.97
2017-10-04T16:38:48.735Z,14.30
2017-10-04T16:41:17.023Z,15.40
2017-10-04T16:43:45.490Z,17.67
2017-10-04T16:46:14.078Z,14.53
2017-10-04T16:48:42.146Z,15.50
2017-10-04T16:51:10.227Z,17.93
2017-10-04T16:53:39.619Z,26.83
2017-10-04T16:56:07.832Z,18.40
2017-10-04T16:58:36.689Z,17.67
2017-10-04T17:01:04.578Z,22.30
2017-10-04T17:03:32.855Z,20.03
2017-10-04T17:06:00.897Z,21.27
2017-10-04T17:08:28.762Z,18.00
2017-10-04T17:10:56.630Z,23.70
2017-10-04T17:13:24.944Z,28.23
2017-10-04T17:15:53.612Z,27.10
2017-10-04T17:18:21.374Z,30.90
2017-10-04T17:20:49.321Z,28.30
2017-10-04T17:23:17.404Z,33.83
2017-10-04T17:25:45.987Z,42.23
2017-10-04T17:28:13.996Z,29.07
2017-10-04T17:30:42.839Z,30.00
2017-10-04T17:33:15.390Z,30.93
2017-10-04T17:35:43.590Z,33.47
2017-10-04T17:38:12.834Z,40.23
2017-10-04T17:40:41.605Z,33.63
2017-10-04T17:43:10.752Z,46.60
2017-10-04T17:45:38.988Z,37.40
2017-10-04T17:48:07.735Z,41.73
2017-10-04T17:50:35.631Z,38.53
2017-10-04T17:53:04.215Z,33.50
2017-10-04T17:55:32.286Z,40.73
2017-10-04T17:58:01.200Z,42.53
2017-10-04T18:00:30.034Z,37.63
2017-10-04T18:02:58.275Z,30.73
2017-10-04T18:05:26.218Z,33.07
2017-10-04T18:07:54.900Z,53.07
2017-10-04T18:10:23.587Z,33.87
2017-10-04T18:12:51.725Z,39.10
2017-10-04T18:15:19.792Z,37.70
2017-10-04T18:17:49.359Z,28.60
2017-10-04T18:20:18.496Z,25.97
2017-10-04T18:22:46.683Z,17.50
2017-10-04T18:25:14.750Z,15.20
2017-10-04T18:27:42.812Z,18.73
2017-10-04T18:30:11.020Z,19.57
2017-10-04T18:32:39.163Z,10.67
2017-10-04T18:35:07.234Z,17.33
2017-10-04T18:37:35.352Z,12.50
2017-10-04T18:40:04.139Z,16.60
2017-10-04T18:42:33.649Z,17.83
2017-10-04T18:45:01.817Z,12.20
2017-10-04T18:47:30.007Z,19.43
2017-10-04T18:49:58.222Z,17.33
2017-10-04T18:52:26.394Z,24.50
2017-10-04T18:54:54.397Z,19.37
2017-10-04T18:57:22.397Z,25.00
2017-10-04T18:59:50.816Z,30.23
2017-10-04T19:02:19.602Z,26.00
2017-10-04T19:04:47.722Z,19.43
2017-10-04T19:07:16.721Z,27.17
2017-10-04T19:09:45.492Z,23.57
2017-10-04T19:12:13.372Z,28.10
2017-10-04T19:14:41.498Z,22.97
2017-10-04T19:17:09.667Z,24.03
2017-10-04T19:19:37.837Z,20.40
2017-10-04T19:22:06.020Z,25.90
2017-10-04T19:24:34.069Z,23.80
2017-10-04T19:27:02.198Z,27.73
2017-10-04T19:29:30.984Z,23.70
2017-10-04T19:31:59.670Z,22.40
2017-10-04T19:34:28.212Z,26.13
2017-10-04T19:36:56.178Z,18.03
2017-10-04T19:39:24.083Z,30.13
2017-10-04T19:41:52.019Z,18.17
2017-10-04T19:44:19.896Z,22.27
2017-10-04T19:46:47.849Z,16.30
2017-10-04T19:49:15.926Z,18.67
2017-10-04T19:51:45.839Z,17.00
2017-10-04T19:54:14.840Z,18.77
2017-10-04T19:56:42.934Z,22.83
2017-10-04T19:59:11.626Z,17.70
2017-10-04T20:01:40.373Z,21.23
2017-10-04T20:04:08.749Z,22.90
2017-10-04T20:06:36.932Z,18.50
2017-10-04T20:09:04.928Z,23.60
2017-10-04T20:11:33.605Z,19.83
2017-10-04T20:14:01.576Z,16.60
2017-10-04T20:16:29.617Z,21.03
2017-10-04T20:18:57.504Z,18.63
2017-10-04T20:21:25.431Z,20.80
2017-10-04T20:23:53.343Z,16.73
2017-10-04T20:26:21.433Z,22.90
2017-10-04T20:28:50.409Z,15.70
2017-10-04T20:31:18.281Z,18.73
2017-10-04T20:33:46.154Z,18.60
2017-10-04T20:36:14.401Z,22.00
2017-10-04T20:38:42.281Z,21.97
2017-10-04T20:41:10.346Z,20.70
2017-10-04T20:43:38.204Z,17.83
2017-10-04T20:46:06.079Z,25.40
2017-10-04T20:48:33.877Z,19.43
2017-10-04T20:51:03.847Z,23.50
2017-10-04T20:53:31.920Z,16.93
2017-10-04T20:55:59.890Z,22.03
2017-10-04T20:58:28.370Z,18.83
2017-10-04T21:00:56.371Z,15.67
2017-10-04T21:03:24.341Z,20.17
2017-10-04T21:05:52.884Z,13.57
2017-10-04T21:08:20.884Z,11.80
2017-10-04T21:10:48.743Z,13.53
2017-10-04T21:13:16.587Z,8.90
2017-10-04T21:15:44.658Z,11.83
2017-10-04T21:18:12.767Z,12.07
2017-10-04T21:20:40.619Z,12.93
2017-10-04T21:23:08.851Z,12.50
2017-10-04T21:25:37.658Z,14.77
2017-10-04T21:28:05.635Z,9.50
2017-10-04T21:30:35.946Z,13.03
2017-10-04T21:33:03.826Z,10.70
2017-10-04T21:35:31.712Z,12.63
2017-10-04T21:37:59.569Z,9.50
2017-10-04T21:40:27.531Z,14.70
2017-10-04T21:42:55.408Z,13.57
2017-10-04T21:45:24.176Z,7.80
2017-10-04T21:47:52.070Z,7.07
2017-10-04T21:50:19.834Z,6.90
2017-10-04T21:52:47.691Z,9.43
2017-10-04T21:55:15.448Z,9.33
2017-10-04T21:57:43.339Z,12.67
2017-10-04T22:00:11.148Z,9.80
2017-10-04T22:02:38.907Z,12.20
2017-10-04T22:05:06.802Z,12.93
2017-10-04T22:07:34.704Z,11.47
2017-10-04T22:10:03.275Z,16.17
2017-10-04T22:12:31.290Z,8.13
2017-10-04T22:14:59.206Z,14.87
2017-10-04T22:17:27.307Z,9.70
2017-10-04T22:19:57.486Z,12.57
2017-10-04T22:22:25.386Z,12.13
2017-10-04T22:24:53.578Z,7.03
2017-10-04T22:27:22.028Z,11.93
2017-10-04T22:29:49.872Z,7.50
2017-10-04T22:32:17.574Z,10.93
2017-10-04T22:34:45.341Z,8.13
2017-10-04T22:37:13.987Z,6.67
2017-10-04T22:39:41.813Z,8.10
2017-10-04T22:42:09.928Z,12.17
2017-10-04T22:44:38.008Z,10.83
2017-10-04T22:47:06.360Z,10.53
2017-10-04T22:49:34.133Z,6.93
2017-10-04T22:52:02.129Z,5.80
2017-10-04T22:54:30.090Z,4.77
2017-10-04T22:56:57.967Z,9.50
2017-10-04T22:59:26.948Z,6.63
2017-10-04T23:01:55.526Z,5.43
2017-10-04T23:04:23.513Z,7.40
2017-10-04T23:06:51.284Z,14.57
2017-10-04T23:09:19.955Z,5.43
2017-10-04T23:11:48.017Z,15.73
2017-10-04T23:14:15.975Z,10.13
2017-10-04T23:16:43.845Z,15.87
2017-10-04T23:19:12.008Z,5.53
2017-10-04T23:21:39.896Z,9.03
2017-10-04T23:24:07.956Z,9.80
2017-10-04T23:26:35.934Z,22.87
2017-10-04T23:29:03.901Z,4.20
2017-10-04T23:31:31.691Z,5.80
2017-10-04T23:34:00.543Z,14.77
2017-10-04T23:36:28.509Z,5.00
2017-10-04T23:38:56.715Z,6.33
2017-10-04T23:41:24.670Z,9.57
2017-10-04T23:43:52.532Z,4.87
2017-10-04T23:46:20.484Z,6.47
2017-10-04T23:48:48.661Z,7.10
2017-10-04T23:51:16.737Z,12.60
2017-10-04T23:53:44.728Z,4.07
2017-10-04T23:56:12.473Z,4.30
2017-10-04T23:58:40.357Z,5.30
